Time;durP1;ratioP1;P1;durP2;ratioP2;P2;SDS_P1;SDS_P2;PMS_P1;PMS_P2;Temp;Humidity;BMP_temperature;BMP_pressure;BME280_temperature;BME280_humidity;BME280_pressure;Samples;Min_cycle;Max_cycle;Signal;HPM_P1;HPM_P2
2021/01/31 00:02:14;;;;;;;16.75;10.30;;;;;;;-1.46;100.00;99715.72;5223604;28;20021;-79
2021/01/31 00:04:46;;;;;;;18.27;11.00;;;;;;;-1.63;100.00;99717.44;5225186;28;20488;-80
2021/01/31 00:07:17;;;;;;;16.10;10.32;;;;;;;-1.53;100.00;99721.72;5223756;28;20035;-80
2021/01/31 00:09:49;;;;;;;19.65;11.45;;;;;;;-1.47;100.00;99722.56;5224789;28;20032;-80
2021/01/31 00:12:20;;;;;;;17.35;11.35;;;;;;;-1.60;100.00;99725.16;5224301;28;20024;-80
2021/01/31 00:14:50;;;;;;;15.57;10.10;;;;;;;-1.30;100.00;99722.50;5223340;28;20572;-80
2021/01/31 00:17:20;;;;;;;16.10;10.10;;;;;;;-1.50;100.00;99717.44;5224609;28;20074;-80
2021/01/31 00:19:50;;;;;;;16.63;10.32;;;;;;;-1.62;100.00;99721.72;5224715;28;20024;-80
2021/01/31 00:22:21;;;;;;;16.33;10.63;;;;;;;-1.57;100.00;99732.81;5224764;28;20522;-80
2021/01/31 00:24:54;;;;;;;15.90;10.10;;;;;;;-1.72;100.00;99727.69;5227035;28;20039;-80
2021/01/31 00:27:25;;;;;;;14.57;9.50;;;;;;;-1.56;100.00;99731.97;5224315;28;20495;-80
2021/01/31 00:29:55;;;;;;;15.43;9.50;;;;;;;-1.68;100.00;99731.97;5225752;28;20036;-79
2021/01/31 00:32:28;;;;;;;14.45;9.13;;;;;;;-1.72;100.00;99725.97;5222673;28;20064;-80
2021/01/31 00:34:58;;;;;;;15.32;8.85;;;;;;;-1.77;100.00;99727.69;5224236;28;20091;-80
2021/01/31 00:37:28;;;;;;;15.27;9.00;;;;;;;-1.76;100.00;99723.44;5224226;28;20025;-79
2021/01/31 00:39:59;;;;;;;13.77;8.77;;;;;;;-1.83;100.00;99726.84;5224697;28;20028;-80
2021/01/31 00:42:29;;;;;;;14.20;8.73;;;;;;;-1.77;100.00;99729.44;5224336;28;20081;-80
2021/01/31 00:44:59;;;;;;;14.43;8.90;;;;;;;-1.68;100.00;99729.41;5225247;28;20033;-80
2021/01/31 00:47:30;;;;;;;12.82;8.18;;;;;;;-1.48;100.00;99733.66;5225516;28;20167;-80
2021/01/31 00:50:00;;;;;;;13.45;8.32;;;;;;;-1.55;100.00;99731.09;5225487;28;20040;-80
2021/01/31 00:52:30;;;;;;;12.50;8.07;;;;;;;-1.78;100.00;99732.84;5226368;28;20549;-80
2021/01/31 00:55:01;;;;;;;14.27;8.38;;;;;;;-1.86;100.00;99731.97;5226300;28;20051;-79
2021/01/31 00:57:31;;;;;;;11.77;8.30;;;;;;;-1.74;100.00;99726.84;5225811;28;20040;-80
2021/01/31 01:00:14;;;;;;;12.32;7.88;;;;;;;-1.78;100.00;99741.34;5225183;28;20123;-80
2021/01/31 01:02:45;;;;;;;13.35;8.27;;;;;;;-1.83;100.00;99731.97;5222018;28;20024;-80
2021/01/31 01:05:18;;;;;;;12.52;8.25;;;;;;;-1.95;100.00;99739.66;5216477;28;20115;-80
2021/01/31 01:07:48;;;;;;;12.32;8.27;;;;;;;-1.78;100.00;99743.91;5223183;28;20075;-81
2021/01/31 01:10:25;;;;;;;11.95;8.00;;;;;;;-1.77;100.00;99748.19;5224764;28;20025;-81
2021/01/31 01:12:55;;;;;;;12.45;7.93;;;;;;;-1.75;100.00;99745.63;5223687;28;20021;-81
2021/01/31 01:15:28;;;;;;;12.02;7.60;;;;;;;-1.98;100.00;99752.44;5223891;28;20030;-80
2021/01/31 01:17:59;;;;;;;13.13;8.57;;;;;;;-1.85;100.00;99754.16;5225299;28;20020;-80
2021/01/31 01:20:29;;;;;;;12.18;8.00;;;;;;;-1.57;100.00;99750.75;5225342;28;20087;-81
2021/01/31 01:22:59;;;;;;;12.45;8.00;;;;;;;-1.51;99.56;99751.59;5224349;28;20040;-81
2021/01/31 01:25:29;;;;;;;12.65;7.78;;;;;;;-1.64;100.00;99751.59;5221918;28;20029;-80
2021/01/31 01:28:00;;;;;;;13.60;7.82;;;;;;;-1.74;99.13;99752.47;5223604;28;20365;-80
2021/01/31 01:30:31;;;;;;;13.20;8.30;;;;;;;-1.96;100.00;99753.28;5223820;28;20061;-79
2021/01/31 01:33:02;;;;;;;12.10;8.13;;;;;;;-1.96;100.00;99747.31;5222116;28;20637;-80
2021/01/31 01:35:32;;;;;;;11.95;7.93;;;;;;;-1.97;100.00;99741.34;5222940;28;20139;-80
2021/01/31 01:38:02;;;;;;;14.20;8.63;;;;;;;-1.87;100.00;99737.94;5221549;28;20025;-80
2021/01/31 01:40:38;;;;;;;13.43;8.63;;;;;;;-1.87;100.00;99737.94;5223015;28;20025;-80
2021/01/31 01:43:18;;;;;;;12.52;8.35;;;;;;;-1.97;100.00;99743.91;5222168;28;20636;-79
2021/01/31 01:46:16;;;;;;;13.88;8.80;;;;;;;-2.02;100.00;99742.22;5221396;28;20036;-79
2021/01/31 01:48:49;;;;;;;13.60;8.40;;;;;;;-1.87;100.00;99735.38;5223982;28;20021;-79
2021/01/31 01:51:48;;;;;;;13.48;8.50;;;;;;;-2.04;100.00;99728.53;5224571;28;20032;-80
2021/01/31 01:54:27;;;;;;;13.18;8.35;;;;;;;-2.12;100.00;99723.44;5225053;28;20090;-81
2021/01/31 01:57:01;;;;;;;13.15;8.68;;;;;;;-2.03;100.00;99727.72;5226005;28;20053;-80
2021/01/31 01:59:34;;;;;;;13.43;8.05;;;;;;;-1.88;100.00;99724.28;5225842;28;20028;-81
2021/01/31 02:02:09;;;;;;;12.27;8.20;;;;;;;-2.08;100.00;99725.16;5225504;28;20648;-80
2021/01/31 02:04:40;;;;;;;13.93;8.50;;;;;;;-2.05;100.00;99725.13;5226963;28;20544;-80
2021/01/31 02:07:11;;;;;;;12.90;8.43;;;;;;;-2.04;100.00;99721.72;5229697;28;20127;-81
2021/01/31 02:09:48;;;;;;;12.32;8.00;;;;;;;-1.91;100.00;99718.31;5226428;28;20100;-80
2021/01/31 02:12:23;;;;;;;13.00;7.75;;;;;;;-2.17;100.00;99722.56;5226541;28;20053;-80
2021/01/31 02:14:57;;;;;;;12.90;8.32;;;;;;;-1.97;100.00;99725.97;5226666;28;20036;-81
2021/01/31 02:17:41;;;;;;;13.63;8.40;;;;;;;-2.14;100.00;99722.56;5226869;28;20036;-81
2021/01/31 02:20:49;;;;;;;13.60;8.80;;;;;;;-2.30;100.00;99727.66;5226697;28;20085;-79
2021/01/31 02:23:41;;;;;;;13.82;8.45;;;;;;;-2.17;100.00;99726.84;5226090;28;20021;-80
2021/01/31 02:26:20;;;;;;;12.88;8.25;;;;;;;-2.28;100.00;99731.94;5228639;28;20025;-79
2021/01/31 02:28:57;;;;;;;15.20;8.90;;;;;;;-2.38;100.00;99722.53;5226200;28;20502;-80
2021/01/31 02:31:41;;;;;;;14.32;8.65;;;;;;;-2.36;100.00;99737.91;5225879;28;20035;-80
2021/01/31 02:34:41;;;;;;;12.50;8.20;;;;;;;-2.61;100.00;99733.56;5224772;28;20507;-80
2021/01/31 02:37:27;;;;;;;13.75;8.50;;;;;;;-2.77;100.00;99732.66;5225729;28;20032;-81
2021/01/31 02:40:14;;;;;;;14.13;9.35;;;;;;;-2.85;100.00;99749.66;5226291;28;20071;-79
2021/01/31 02:43:03;;;;;;;16.65;10.10;;;;;;;-3.05;100.00;99751.28;5225462;28;20422;-80
2021/01/31 02:45:37;;;;;;;13.98;9.15;;;;;;;-3.03;100.00;99754.69;5225979;28;20029;-80
2021/01/31 02:48:17;;;;;;;18.70;10.25;;;;;;;-3.05;100.00;99751.28;5225437;28;20115;-79
2021/01/31 02:50:54;;;;;;;13.85;9.05;;;;;;;-3.14;100.00;99748.69;5226367;28;20043;-79
2021/01/31 02:53:34;;;;;;;13.73;9.00;;;;;;;-3.26;100.00;99746.06;5225484;28;20078;-80
2021/01/31 02:56:10;;;;;;;15.25;9.50;;;;;;;-3.34;100.00;99755.34;5225899;28;20017;-79
2021/01/31 02:58:46;;;;;;;16.67;9.63;;;;;;;-3.45;100.00;99746.78;5225437;28;20483;-81
2021/01/31 03:01:25;;;;;;;13.02;8.77;;;;;;;-3.45;100.00;99748.47;5225122;28;20036;-79
2021/01/31 03:04:10;;;;;;;15.55;9.00;;;;;;;-3.89;100.00;99742.22;5224490;28;20484;-80
2021/01/31 03:06:52;;;;;;;12.73;7.75;;;;;;;-4.12;100.00;99745.41;5224641;28;20035;-80
2021/01/31 03:09:28;;;;;;;10.13;6.70;;;;;;;-4.19;100.00;99741.06;5224231;28;20053;-80
2021/01/31 03:12:03;;;;;;;13.07;7.72;;;;;;;-4.04;100.00;99736.09;5224286;28;20028;-80
2021/01/31 03:14:41;;;;;;;14.23;8.35;;;;;;;-4.10;100.00;99746.28;5222051;28;20112;-81
2021/01/31 03:17:19;;;;;;;14.10;7.65;;;;;;;-4.44;100.00;99750.16;5223597;28;20023;-80
2021/01/31 03:20:08;;;;;;;14.90;8.70;;;;;;;-4.50;100.00;99749.28;5223850;28;20024;-79
2021/01/31 03:22:46;;;;;;;13.05;7.90;;;;;;;-4.56;100.00;99747.53;5223361;28;20025;-80
2021/01/31 03:25:33;;;;;;;14.52;8.50;;;;;;;-4.33;100.00;99753.69;5223149;28;20029;-79
2021/01/31 03:28:04;;;;;;;13.20;8.13;;;;;;;-4.12;100.00;99747.94;5221125;28;20029;-78
2021/01/31 03:30:34;;;;;;;14.07;8.45;;;;;;;-4.25;100.00;99756.31;5223658;28;20371;-78
2021/01/31 03:33:10;;;;;;;14.68;8.93;;;;;;;-4.27;100.00;99750.34;5222768;28;20025;-78
2021/01/31 03:35:49;;;;;;;14.48;9.00;;;;;;;-4.12;100.00;99758.16;5222046;28;20284;-79
2021/01/31 03:38:30;;;;;;;13.23;8.23;;;;;;;-4.04;100.00;99754.84;5223151;28;20388;-79
2021/01/31 03:41:04;;;;;;;6.82;4.13;;;;;;;-4.11;96.35;99750.50;5223210;28;20090;-80
2021/01/31 03:43:34;;;;;;;6.23;3.70;;;;;;;-4.35;95.86;99745.19;5222793;28;20021;-79
2021/01/31 03:46:09;;;;;;;10.55;6.18;;;;;;;-4.54;96.89;99742.41;5222984;28;20291;-78
2021/01/31 03:48:49;;;;;;;;;;;;;;;-4.90;96.97;99752.19;5223455;28;20036;-78
2021/01/31 03:51:20;;;;;;;7.13;3.53;;;;;;;-4.93;98.05;99757.25;5222084;28;19912;-80
2021/01/31 03:53:51;;;;;;;5.90;3.35;;;;;;;-4.68;97.74;99751.59;5222154;28;20035;-78
2021/01/31 03:56:28;;;;;;;5.22;3.47;;;;;;;-4.71;95.42;99754.13;5222577;28;20017;-80
2021/01/31 03:59:00;;;;;;;8.90;4.10;;;;;;;-4.82;96.55;99753.16;5223984;28;20032;-78
2021/01/31 04:01:36;;;;;;;6.85;3.92;;;;;;;-4.73;97.13;99748.16;5225965;28;20025;-79
2021/01/31 04:04:17;;;;;;;4.50;3.00;;;;;;;-5.02;93.52;99746.94;5223016;28;20025;-80
2021/01/31 04:06:51;;;;;;;5.78;3.20;;;;;;;-5.01;95.09;99743.59;5225941;28;20499;-80
2021/01/31 04:09:22;;;;;;;5.25;3.05;;;;;;;-4.79;94.90;99741.28;5224893;28;20483;-80
2021/01/31 04:12:03;;;;;;;4.95;2.30;;;;;;;-4.80;93.20;99746.38;5225830;28;20036;-80
2021/01/31 04:15:02;;;;;;;3.13;1.63;;;;;;;-5.31;92.14;99743.19;5224594;28;20033;-80
2021/01/31 04:17:33;;;;;;;2.20;1.40;;;;;;;-5.43;93.54;99743.00;5223910;28;20039;-79
2021/01/31 04:20:04;;;;;;;2.90;2.00;;;;;;;-5.27;95.11;99738.16;5225243;28;20562;-80
2021/01/31 04:22:34;;;;;;;11.13;2.08;;;;;;;-5.44;95.11;99736.22;5224534;28;20064;-79
2021/01/31 04:25:07;;;;;;;2.75;1.77;;;;;;;-5.35;94.11;99733.81;5222359;28;20148;-80
2021/01/31 04:27:37;;;;;;;3.38;1.95;;;;;;;-5.79;95.40;99737.41;5224210;28;20035;-81
2021/01/31 04:30:09;;;;;;;3.33;2.28;;;;;;;-5.81;95.68;99740.75;5224484;28;20029;-81
2021/01/31 04:32:39;;;;;;;4.45;2.80;;;;;;;-5.85;97.73;99736.47;5223934;28;20025;-78
2021/01/31 04:35:10;;;;;;;6.28;3.47;;;;;;;-5.81;98.58;99750.94;5224052;28;20032;-80
2021/01/31 04:37:41;;;;;;;5.45;3.35;;;;;;;-5.56;97.95;99746.22;5223480;28;20032;-80
2021/01/31 04:40:13;;;;;;;3.08;1.83;;;;;;;-5.92;95.81;99744.84;5223756;28;20032;-79
2021/01/31 04:42:46;;;;;;;3.05;1.90;;;;;;;-5.60;93.69;99753.78;5223592;28;20108;-79
2021/01/31 04:45:17;;;;;;;5.80;3.08;;;;;;;-5.55;91.68;99753.00;5223058;28;20098;-79
2021/01/31 04:48:25;;;;;;;7.35;4.40;;;;;;;-5.64;89.22;99746.94;5222889;28;20653;-79
2021/01/31 04:51:10;;;;;;;9.57;3.80;;;;;;;-6.44;90.75;99740.56;5223507;28;20029;-79
2021/01/31 04:53:59;;;;;;;22.88;4.15;;;;;;;-6.85;91.82;99755.84;5222435;28;20032;-78
2021/01/31 04:56:38;;;;;;;39.95;3.53;;;;;;;-6.71;91.44;99746.81;5222980;28;20396;-80
2021/01/31 04:59:24;;;;;;;17.45;3.20;;;;;;;-6.97;92.19;99761.53;5220940;28;20021;-79
2021/01/31 05:02:02;;;;;;;5.82;3.33;;;;;;;-6.86;92.46;99757.53;5222954;28;20028;-79
2021/01/31 05:04:39;;;;;;;11.82;4.85;;;;;;;-6.95;93.50;99754.81;5222180;28;20052;-79
2021/01/31 05:07:10;;;;;;;10.82;5.72;;;;;;;-7.04;93.10;99749.56;5222294;28;20100;-79
2021/01/31 05:09:40;;;;;;;9.70;5.63;;;;;;;-6.71;94.67;99754.44;5222971;28;20107;-80
2021/01/31 05:12:27;;;;;;;9.68;5.82;;;;;;;-6.52;92.40;99759.91;5223068;28;20048;-79
2021/01/31 05:15:18;;;;;;;8.30;5.03;;;;;;;-7.27;94.07;99761.72;5222467;28;20028;-79
2021/01/31 05:17:52;;;;;;;9.02;5.13;;;;;;;-6.96;93.58;99760.72;5221456;28;20040;-79
2021/01/31 05:20:27;;;;;;;9.13;5.25;;;;;;;-6.89;93.52;99767.66;5224307;28;20044;-79
2021/01/31 05:22:59;;;;;;;9.00;5.55;;;;;;;-7.04;94.02;99771.53;5224315;28;20025;-79
2021/01/31 05:25:34;;;;;;;9.07;5.22;;;;;;;-7.19;94.89;99770.38;5223998;28;20025;-80
2021/01/31 05:28:06;;;;;;;8.95;5.13;;;;;;;-7.32;95.26;99774.31;5222140;28;20021;-79
2021/01/31 05:30:44;;;;;;;8.45;4.70;;;;;;;-7.50;95.50;99773.06;5223672;28;20025;-80
2021/01/31 05:33:17;;;;;;;8.95;5.28;;;;;;;-7.36;95.35;99771.69;5223668;28;20067;-80
2021/01/31 05:35:53;;;;;;;9.45;5.40;;;;;;;-7.59;94.43;99778.78;5223702;28;20029;-80
2021/01/31 05:38:38;;;;;;;11.40;6.43;;;;;;;-7.40;96.41;99774.97;5224063;28;20031;-79
2021/01/31 05:41:42;;;;;;;10.23;5.90;;;;;;;-7.30;96.22;99774.34;5228888;28;20509;-79
2021/01/31 05:44:15;;;;;;;14.60;7.10;;;;;;;-7.51;98.87;99772.19;5227257;28;20578;-79
2021/01/31 05:46:48;;;;;;;15.82;7.95;;;;;;;-7.49;98.08;99777.31;5228304;28;20096;-80
2021/01/31 05:49:41;;;;;;;13.80;7.78;;;;;;;-7.68;97.05;99775.19;5228711;28;20036;-79
2021/01/31 05:52:32;;;;;;;15.65;8.25;;;;;;;-7.61;96.57;99777.91;5227904;28;20025;-79
2021/01/31 05:55:20;;;;;;;16.98;8.23;;;;;;;-7.88;96.81;99779.78;5227970;28;20492;-80
2021/01/31 05:57:50;;;;;;;18.27;8.63;;;;;;;-7.67;97.55;99775.19;5227149;28;20055;-79
2021/01/31 06:00:31;;;;;;;16.13;8.32;;;;;;;-7.63;96.99;99783.75;5228460;28;20056;-81
2021/01/31 06:03:07;;;;;;;16.67;8.52;;;;;;;-7.65;96.75;99780.31;5227047;28;20778;-80
2021/01/31 06:05:38;;;;;;;15.18;7.78;;;;;;;-7.69;95.05;99783.63;5228453;28;20044;-80
2021/01/31 06:08:27;;;;;;;14.40;7.75;;;;;;;-7.79;95.26;99789.28;5228114;28;20589;-80
2021/01/31 06:11:03;;;;;;;15.45;8.15;;;;;;;-7.65;95.44;99786.25;5228450;28;20025;-80
2021/01/31 06:13:35;;;;;;;10.15;5.85;;;;;;;-7.64;94.51;99779.50;5227422;28;20028;-80
2021/01/31 06:16:15;;;;;;;9.98;5.43;;;;;;;-7.84;93.89;99783.25;5227113;28;20029;-81
2021/01/31 06:19:11;;;;;;;10.35;5.28;;;;;;;-7.61;93.38;99792.25;5228586;28;20040;-79
2021/01/31 06:21:43;;;;;;;;;;;;;;;-7.43;95.07;99792.66;5228293;28;20044;-79
2021/01/31 06:24:21;;;;;;;12.88;6.75;;;;;;;-7.49;93.87;99795.91;5228077;28;19909;-80
2021/01/31 06:26:52;;;;;;;13.55;7.20;;;;;;;-7.48;94.26;99795.09;5227976;28;20028;-80
2021/01/31 06:29:50;;;;;;;15.43;7.93;;;;;;;-7.63;94.90;99796.41;5227713;28;20431;-79
2021/01/31 06:32:26;;;;;;;16.17;8.27;;;;;;;-7.50;96.81;99793.34;5227382;28;20044;-80
2021/01/31 06:34:59;;;;;;;16.38;9.27;;;;;;;-7.57;97.06;99801.63;5227724;28;20017;-80
2021/01/31 06:37:51;;;;;;;15.35;8.80;;;;;;;-7.50;96.49;99793.34;5227603;28;20621;-80
2021/01/31 06:40:27;;;;;;;17.08;8.63;;;;;;;-7.46;96.54;99801.06;5227349;28;20126;-80
2021/01/31 06:43:23;;;;;;;15.55;8.45;;;;;;;-7.51;96.28;99802.63;5228059;28;20031;-79
2021/01/31 06:46:05;;;;;;;15.13;8.27;;;;;;;-7.66;96.12;99811.56;5225488;28;20052;-78
2021/01/31 06:48:47;;;;;;;16.83;8.85;;;;;;;-7.35;96.50;99804.69;5225942;28;20108;-77
2021/01/31 06:51:48;;;;;;;15.52;8.63;;;;;;;-7.20;95.79;99809.25;5226222;28;20399;-78
2021/01/31 06:54:43;;;;;;;15.57;8.23;;;;;;;-7.51;94.52;99806.84;5226110;28;20437;-78
2021/01/31 06:57:25;;;;;;;14.27;8.05;;;;;;;-7.35;93.99;99803.84;5225446;28;20056;-79
2021/01/31 07:00:14;;;;;;;14.23;8.60;;;;;;;-7.50;94.77;99803.50;5225602;28;20021;-79
2021/01/31 07:03:20;;;;;;;15.32;8.00;;;;;;;-7.47;94.52;99806.09;5225869;28;20033;-79
2021/01/31 07:06:00;;;;;;;;;;;;;;;-7.77;95.65;99803.72;5225716;28;20104;-78
2021/01/31 07:09:08;;;;;;;18.35;8.95;;;;;;;-7.80;97.19;99797.69;5222323;28;19923;-78
2021/01/31 07:11:51;;;;;;;16.73;9.27;;;;;;;-7.53;96.88;99811.88;5225818;28;20100;-79
2021/01/31 07:14:34;;;;;;;15.73;8.73;;;;;;;-7.65;96.46;99810.75;5224985;28;20025;-78
2021/01/31 07:17:25;;;;;;;18.45;9.25;;;;;;;-7.66;96.61;99809.03;5225621;28;20033;-77
2021/01/31 07:20:15;;;;;;;14.77;8.38;;;;;;;-7.68;95.13;99808.13;5223858;28;20052;-79
2021/01/31 07:22:55;;;;;;;15.80;8.73;;;;;;;-7.76;96.20;99809.63;5225266;28;20039;-80
2021/01/31 07:25:29;;;;;;;16.60;8.63;;;;;;;-7.92;95.41;99807.53;5224850;28;20107;-79
2021/01/31 07:28:06;;;;;;;17.27;9.15;;;;;;;-7.92;96.99;99805.88;5225137;28;20016;-79
2021/01/31 07:31:05;;;;;;;17.40;8.60;;;;;;;-7.44;96.23;99808.69;5228045;28;20027;-78
2021/01/31 07:33:44;;;;;;;14.43;7.88;;;;;;;-7.71;94.14;99808.06;5223176;28;20122;-79
2021/01/31 07:36:14;;;;;;;14.70;8.07;;;;;;;-7.94;93.75;99810.03;5225365;28;20475;-79
2021/01/31 07:39:02;;;;;;;16.38;8.52;;;;;;;-7.98;94.69;99812.47;5224399;28;20083;-80
2021/01/31 07:41:33;;;;;;;13.82;7.88;;;;;;;-7.73;94.28;99818.16;5225811;28;20080;-78
2021/01/31 07:44:09;;;;;;;16.80;9.13;;;;;;;-7.66;94.72;99811.56;5224712;28;20035;-78
2021/01/31 07:46:39;;;;;;;14.98;8.73;;;;;;;-7.44;96.09;99801.09;5225352;28;20469;-79
2021/01/31 07:49:09;;;;;;;15.02;8.70;;;;;;;-7.65;95.14;99798.06;5225863;28;20152;-78
2021/01/31 07:51:39;;;;;;;18.17;10.20;;;;;;;-7.43;96.95;99805.34;5225244;28;20033;-80
2021/01/31 07:54:22;;;;;;;21.85;9.65;;;;;;;-7.53;96.08;99801.72;5226385;28;20442;-79
2021/01/31 07:57:13;;;;;;;17.65;9.70;;;;;;;-7.41;96.78;99794.41;5230040;28;20108;-79
2021/01/31 07:59:44;;;;;;;17.50;9.52;;;;;;;-7.20;97.47;99799.09;5225950;28;20028;-80
2021/01/31 08:02:34;;;;;;;17.65;10.27;;;;;;;-6.74;96.92;99797.56;5226017;28;20108;-79
2021/01/31 08:05:06;;;;;;;17.25;9.13;;;;;;;-6.30;94.08;99797.56;5225078;28;20020;-80
2021/01/31 08:08:03;;;;;;;17.33;9.77;;;;;;;-5.77;91.69;99791.66;5226964;28;20475;-80
2021/01/31 08:10:43;;;;;;;14.68;8.80;;;;;;;-5.56;90.50;99792.00;5228274;28;20043;-79
2021/01/31 08:13:32;;;;;;;14.05;8.15;;;;;;;-4.59;86.15;99789.94;5227363;28;20033;-81
2021/01/31 08:16:40;;;;;;;14.40;8.23;;;;;;;-4.36;85.51;99789.38;5228776;28;20029;-80
2021/01/31 08:19:25;;;;;;;12.02;7.57;;;;;;;-1.89;77.60;99783.16;5226329;28;20064;-81
2021/01/31 08:21:57;;;;;;;12.45;7.82;;;;;;;-2.18;74.55;99792.50;5222718;28;20020;-81
2021/01/31 08:25:05;;;;;;;13.00;7.63;;;;;;;-1.23;74.72;99775.47;5229001;28;20114;-80
2021/01/31 08:27:41;;;;;;;12.10;7.82;;;;;;;-1.46;71.66;99784.88;5227360;28;20048;-81
2021/01/31 08:30:13;;;;;;;12.50;7.60;;;;;;;-0.95;74.02;99779.66;5228373;28;20017;-80
2021/01/31 08:33:02;;;;;;;13.38;8.30;;;;;;;-1.52;74.18;99785.75;5227426;28;20662;-81
2021/01/31 08:35:41;;;;;;;11.85;8.65;;;;;;;-0.99;74.80;99778.84;5221830;28;20052;-83
2021/01/31 08:38:20;;;;;;;11.38;7.90;;;;;;;-0.85;71.35;99777.09;5225868;28;20098;-80
2021/01/31 08:41:03;;;;;;;11.93;7.82;;;;;;;-1.81;73.31;99784.00;5227457;28;20033;-82
2021/01/31 08:43:37;;;;;;;14.80;8.57;;;;;;;-1.77;75.43;99786.59;5225001;28;20021;-82
2021/01/31 08:46:14;;;;;;;8.90;6.20;;;;;;;-0.69;71.32;99780.44;5225713;28;20025;-80
2021/01/31 08:49:01;;;;;;;10.00;7.28;;;;;;;1.58;68.95;99781.13;5226363;28;20033;-80
2021/01/31 08:51:34;;;;;;;9.52;7.35;;;;;;;2.13;65.86;99776.94;5226794;28;20051;-81
2021/01/31 08:54:08;;;;;;;11.23;7.82;;;;;;;2.38;63.94;99778.25;5234609;28;20035;-80
2021/01/31 08:56:51;;;;;;;12.30;8.53;;;;;;;1.39;64.15;99774.50;5268332;28;20104;-82
2021/01/31 08:59:31;;;;;;;10.65;7.80;;;;;;;2.53;63.00;99772.88;5243716;28;20270;-81
2021/01/31 09:02:13;;;;;;;11.93;8.35;;;;;;;-0.05;70.68;99779.28;5271745;28;20046;-81
2021/01/31 09:04:48;;;;;;;12.25;8.95;;;;;;;-3.05;81.04;99791.31;5269939;28;20414;-80
2021/01/31 09:07:31;;;;;;;13.90;8.70;;;;;;;-2.80;85.19;99796.56;5270759;28;20020;-80
2021/01/31 09:10:25;;;;;;;14.93;9.75;;;;;;;-2.32;82.14;99793.31;5270261;28;20115;-81
2021/01/31 09:13:26;;;;;;;15.10;9.35;;;;;;;-2.66;80.03;99800.00;5269842;28;20035;-81
2021/01/31 09:16:21;;;;;;;15.32;9.70;;;;;;;-2.30;80.79;99789.91;5253087;28;20039;-80
2021/01/31 09:19:18;;;;;;;14.68;9.65;;;;;;;-2.34;79.54;99782.22;5270893;28;20034;-80
2021/01/31 09:22:13;;;;;;;15.50;9.95;;;;;;;-2.30;81.73;99789.91;5254338;28;20019;-80
2021/01/31 09:24:45;;;;;;;15.98;9.77;;;;;;;-1.82;81.31;99790.00;5278301;28;20027;-79
2021/01/31 09:27:20;;;;;;;18.15;10.40;;;;;;;-2.04;80.94;99793.38;5271478;28;20012;-81
2021/01/31 09:29:57;;;;;;;15.00;10.02;;;;;;;-2.01;81.33;99788.25;5273916;28;20032;-80
2021/01/31 09:32:36;;;;;;;17.23;10.48;;;;;;;-2.64;85.23;99792.34;5273509;28;20035;-80
2021/01/31 09:35:09;;;;;;;18.65;10.85;;;;;;;-2.73;87.55;99795.72;5271520;28;20034;-79
2021/01/31 09:37:40;;;;;;;17.98;11.20;;;;;;;-3.04;88.11;99805.78;5272989;28;20028;-79
2021/01/31 09:40:12;;;;;;;19.17;11.75;;;;;;;-2.40;87.61;99790.75;5271707;28;20050;-80
2021/01/31 09:42:45;;;;;;;19.00;11.52;;;;;;;-2.22;85.82;99795.91;5248686;28;20130;-80
2021/01/31 09:45:32;;;;;;;18.40;10.68;;;;;;;-2.20;84.71;99796.75;5269621;28;20028;-80
2021/01/31 09:48:07;;;;;;;19.40;10.98;;;;;;;-2.03;84.23;99800.22;5251992;28;20024;-80
2021/01/31 09:51:24;;;;;;;18.42;11.30;;;;;;;-2.04;84.80;99800.19;5253717;28;20390;-81
2021/01/31 09:53:54;;;;;;;16.73;10.60;;;;;;;-2.42;85.11;99797.56;5265100;28;20019;-81
2021/01/31 09:56:40;;;;;;;20.67;11.50;;;;;;;-2.56;85.87;99795.78;5268987;28;20055;-81
2021/01/31 09:59:28;;;;;;;22.10;12.18;;;;;;;-2.47;87.32;99801.78;5271587;28;20027;-81
2021/01/31 10:02:20;;;;;;;22.17;12.38;;;;;;;-2.30;87.42;99805.25;5267899;28;20119;-81
2021/01/31 10:04:56;;;;;;;19.73;12.13;;;;;;;-2.28;89.37;99797.59;5250418;28;20238;-81
2021/01/31 10:07:33;;;;;;;19.70;12.27;;;;;;;-2.27;87.66;99799.28;5271736;28;20055;-81
2021/01/31 10:10:34;;;;;;;20.15;12.50;;;;;;;-1.86;88.47;99793.41;5250858;28;20020;-81
2021/01/31 10:13:19;;;;;;;20.80;12.60;;;;;;;-1.46;87.66;99782.31;5250524;28;20051;-81
2021/01/31 10:16:15;;;;;;;20.65;12.38;;;;;;;-1.76;89.07;99784.91;5267186;28;20031;-81
2021/01/31 10:18:45;;;;;;;21.35;12.82;;;;;;;-1.98;89.95;99801.06;5269443;28;20066;-81
2021/01/31 10:21:31;;;;;;;21.42;12.27;;;;;;;-1.73;90.25;99790.00;5269874;28;20031;-81
2021/01/31 10:24:16;;;;;;;20.52;12.35;;;;;;;-1.60;87.51;99791.72;5268460;28;20020;-80
2021/01/31 10:26:47;;;;;;;22.27;13.90;;;;;;;-1.85;89.45;99796.84;5266065;28;20536;-81
2021/01/31 10:29:32;;;;;;;19.50;12.18;;;;;;;-1.56;88.26;99801.94;5266053;28;20024;-81
2021/01/31 10:32:25;;;;;;;19.48;12.43;;;;;;;-1.14;86.73;99799.38;5269387;28;20056;-81
2021/01/31 10:34:56;;;;;;;20.27;11.85;;;;;;;-1.14;87.33;99803.63;5269060;28;20186;-81
2021/01/31 10:37:35;;;;;;;22.95;12.70;;;;;;;-1.18;87.86;99796.81;5287159;28;20114;-81
2021/01/31 10:40:07;;;;;;;22.85;12.93;;;;;;;-1.30;87.91;99796.81;5285225;28;20096;-81
2021/01/31 10:42:37;;;;;;;21.95;12.15;;;;;;;-1.26;87.41;99794.25;5269099;28;20431;-81
2021/01/31 10:45:12;;;;;;;22.45;12.95;;;;;;;-1.43;88.22;99800.25;5251362;28;20067;-81
2021/01/31 10:47:44;;;;;;;20.13;12.63;;;;;;;-1.50;89.28;99788.28;5266715;28;20054;-81
2021/01/31 10:50:16;;;;;;;20.27;12.45;;;;;;;-1.49;89.38;99795.13;5268023;28;20042;-81
2021/01/31 10:52:47;;;;;;;19.88;12.70;;;;;;;-1.95;92.00;99800.22;5267988;28;20036;-81
2021/01/31 10:55:18;;;;;;;18.45;11.73;;;;;;;-1.61;89.94;99780.63;5249419;28;20139;-81
2021/01/31 10:57:48;;;;;;;18.48;11.73;;;;;;;-1.60;89.84;99790.00;5269211;28;20122;-81
2021/01/31 11:00:18;;;;;;;19.95;12.20;;;;;;;-1.52;92.28;99784.88;5270142;28;20020;-81
2021/01/31 11:02:49;;;;;;;19.70;12.63;;;;;;;-1.65;93.90;99784.03;5274092;28;20451;-81
2021/01/31 11:05:20;;;;;;;16.73;11.27;;;;;;;-1.39;93.25;99781.47;5274857;28;20023;-81
2021/01/31 11:07:50;;;;;;;17.52;11.55;;;;;;;-1.40;89.79;99774.63;5268880;28;20036;-81
2021/01/31 11:10:21;;;;;;;19.05;11.00;;;;;;;-1.36;88.93;99778.91;5267079;28;20052;-81
2021/01/31 11:12:51;;;;;;;19.20;12.02;;;;;;;-1.49;92.27;99775.50;5267441;28;20674;-81
2021/01/31 11:15:22;;;;;;;19.55;11.55;;;;;;;-1.34;91.05;99777.19;5270973;28;20103;-81
2021/01/31 11:17:52;;;;;;;17.63;11.90;;;;;;;-1.74;91.63;99780.63;5280586;28;20160;-81
2021/01/31 11:20:22;;;;;;;18.02;11.95;;;;;;;-1.63;91.49;99778.91;5272346;28;20126;-81
2021/01/31 11:22:52;;;;;;;20.30;12.73;;;;;;;-1.70;93.63;99772.09;5258943;28;20016;-81
2021/01/31 11:25:23;;;;;;;17.63;10.88;;;;;;;-1.55;90.63;99759.28;5271904;28;20020;-81
2021/01/31 11:27:53;;;;;;;18.08;11.55;;;;;;;-1.36;92.11;99756.72;5270794;28;20083;-81
2021/01/31 11:30:24;;;;;;;18.48;12.02;;;;;;;-1.73;93.46;99759.28;5271426;28;20382;-81
2021/01/31 11:32:55;;;;;;;20.60;12.68;;;;;;;-1.49;92.76;99755.00;5267504;28;20031;-81
2021/01/31 11:35:27;;;;;;;20.70;12.20;;;;;;;-1.62;92.57;99757.56;5272989;28;20030;-81
2021/01/31 11:37:58;;;;;;;20.08;12.43;;;;;;;-1.45;93.17;99753.28;5271108;28;20024;-81
2021/01/31 11:40:28;;;;;;;20.83;12.70;;;;;;;-1.41;92.23;99760.13;5277870;28;20486;-81
2021/01/31 11:42:59;;;;;;;18.00;11.35;;;;;;;-1.28;92.57;99744.72;5274727;28;20128;-81
2021/01/31 11:45:29;;;;;;;19.85;12.23;;;;;;;-1.40;92.83;99751.59;5274009;28;20064;-81
2021/01/31 11:48:06;;;;;;;20.10;12.73;;;;;;;-1.71;92.47;99745.59;5249603;28;20020;-81
2021/01/31 11:50:36;;;;;;;21.92;12.40;;;;;;;-1.63;91.76;99743.91;5271492;28;20031;-81
2021/01/31 11:53:06;;;;;;;19.05;12.07;;;;;;;-1.48;93.07;99735.34;5290132;28;20042;-81
2021/01/31 11:55:36;;;;;;;19.17;11.77;;;;;;;-1.41;93.31;99726.81;5283125;28;20032;-81
2021/01/31 11:58:07;;;;;;;21.38;12.95;;;;;;;-1.46;92.10;99724.25;5281092;28;20020;-81
2021/01/31 12:00:37;;;;;;;20.73;12.77;;;;;;;-1.55;93.58;99731.94;5265371;28;20079;-81
2021/01/31 12:03:08;;;;;;;20.83;12.30;;;;;;;-1.23;93.16;99717.38;5271682;28;20024;-81
2021/01/31 12:05:38;;;;;;;20.40;12.95;;;;;;;-1.45;93.91;99715.72;5270011;28;20032;-81
2021/01/31 12:08:09;;;;;;;19.92;12.02;;;;;;;-1.64;93.23;99719.16;5270672;28;20797;-81
2021/01/31 12:10:39;;;;;;;20.95;12.80;;;;;;;-1.56;92.96;99711.47;5271067;28;20043;-81
2021/01/31 12:13:09;;;;;;;20.77;13.13;;;;;;;-1.56;93.73;99706.34;5251515;28;20047;-81